Time;durP1;ratioP1;P1;durP2;ratioP2;P2;SDS_P1;SDS_P2;PMS_P1;PMS_P2;Temp;Humidity;BMP_temperature;BMP_pressure;BME280_temperature;BME280_humidity;BME280_pressure;Samples;Min_cycle;Max_cycle;Signal;HPM_P1;HPM_P2
2023/11/19 00:00:31;;;;;;;;;;;;;;;;;;4199283;28;20338;-60
2023/11/19 00:02:32;;;;;;;;;;;;;;;;;;4214720;28;19928;-60
2023/11/19 00:04:41;;;;;;;;;;;;;;;;;;4214989;28;20555;-60
2023/11/19 00:06:43;;;;;;;;;;;;;;;;;;4196892;28;19920;-60
2023/11/19 00:08:45;;;;;;;;;;;;;;;;;;4206943;28;19924;-60
2023/11/19 00:10:46;;;;;;;;;;;;;;;;;;4198009;28;19921;-61
2023/11/19 00:12:48;;;;;;;;;;;;;;;;;;4198223;28;19974;-59
2023/11/19 00:14:50;;;;;;;;;;;;;;;;;;4197910;28;20292;-60
2023/11/19 00:16:51;;;;;;;;;;;;;;;;;;4198260;28;19931;-57
2023/11/19 00:18:53;;;;;;;;;;;;;;;;;;4197952;28;19924;-57
2023/11/19 00:20:55;;;;;;;;;;;;;;;;;;4197691;28;19928;-57
2023/11/19 00:22:56;;;;;;;;;;;;;;;;;;4197549;28;19920;-57
2023/11/19 00:24:58;;;;;;;;;;;;;;;;;;4197737;28;20417;-57
2023/11/19 00:26:59;;;;;;;;;;;;;;;;;;4197694;28;19924;-57
2023/11/19 00:29:01;;;;;;;;;;;;;;;;;;4197792;28;19928;-59
2023/11/19 00:31:03;;;;;;;;;;;;;;;;;;4197693;28;20470;-57
2023/11/19 00:33:05;;;;;;;;;;;;;;;;;;4197854;28;19948;-57
2023/11/19 00:35:07;;;;;;;;;;;;;;;;;;4197706;28;19970;-57
2023/11/19 00:37:08;;;;;;;;;;;;;;;;;;4197739;28;19920;-57
2023/11/19 00:39:10;;;;;;;;;;;;;;;;;;4214391;28;19952;-57
2023/11/19 00:41:12;;;;;;;;;;;;;;;;;;4214342;28;19924;-57
2023/11/19 00:43:13;;;;;;;;;;;;;;;;;;4214392;28;19946;-57
2023/11/19 00:45:15;;;;;;;;;;;;;;;;;;4214362;28;19936;-58
2023/11/19 00:47:16;;;;;;;;;;;;;;;;;;4200617;28;19974;-56
2023/11/19 00:49:18;;;;;;;;;;;;;;;;;;4197569;28;19920;-58
2023/11/19 00:51:19;;;;;;;;;;;;;;;;;;4197416;28;20256;-57
2023/11/19 00:53:21;;;;;;;;;;;;;;;;;;4197674;28;19925;-57
2023/11/19 00:55:23;;;;;;;;;;;;;;;;;;4179624;28;20022;-58
2023/11/19 00:57:26;;;;;;;;;;;;;;;;;;4197429;28;20006;-57
2023/11/19 00:59:28;;;;;;;;;;;;;;;;;;4197566;28;19981;-57
2023/11/19 01:01:30;;;;;;;;;;;;;;;;;;4206659;28;19971;-57
2023/11/19 01:03:32;;;;;;;;;;;;;;;;;;4213875;28;19920;-58
2023/11/19 01:05:34;;;;;;;;;;;;;;;;;;4202458;28;20372;-57
2023/11/19 01:07:36;;;;;;;;;;;;;;;;;;4197623;28;19948;-57
2023/11/19 01:09:37;;;;;;;;;;;;;;;;;;4197296;28;19920;-58
2023/11/19 01:11:39;;;;;;;;;;;;;;;;;;4197348;28;19946;-57
2023/11/19 01:13:40;;;;;;;;;;;;;;;;;;4197540;28;19924;-58
2023/11/19 01:15:42;;;;;;;;;;;;;;;;;;4197187;28;19928;-58
2023/11/19 01:17:43;;;;;;;;;;;;;;;;;;4197386;28;19924;-57
2023/11/19 01:19:50;;;;;;;;;;;;;;;;;;4197494;28;19920;-57
2023/11/19 01:21:51;;;;;;;;;;;;;;;;;;4197319;28;20372;-57
2023/11/19 01:23:53;;;;;;;;;;;;;;;;;;4197455;28;19924;-57
2023/11/19 01:25:54;;;;;;;;;;;;;;;;;;4179590;28;19920;-57
2023/11/19 01:27:58;;;;;;;;;;;;;;;;;;4197223;28;20006;-57
2023/11/19 01:30:02;;;;;;;;;;;;;;;;;;4197103;28;19920;-57
2023/11/19 01:32:03;;;;;;;;;;;;;;;;;;4197216;28;19924;-57
2023/11/19 01:34:05;;;;;;;;;;;;;;;;;;4204055;28;19927;-57
2023/11/19 01:36:07;;;;;;;;;;;;;;;;;;4217225;28;19955;-57
2023/11/19 01:38:09;;;;;;;;;;;;;;;;;;4217441;28;20273;-57
2023/11/19 01:40:11;;;;;;;;;;;;;;;;;;4217137;28;20239;-58
2023/11/19 01:42:13;;;;;;;;;;;;;;;;;;4214380;28;20429;-57
2023/11/19 01:44:14;;;;;;;;;;;;;;;;;;4200395;28;19954;-57
2023/11/19 01:46:16;;;;;;;;;;;;;;;;;;4200220;28;19924;-57
2023/11/19 01:48:17;;;;;;;;;;;;;;;;;;4200359;28;20018;-58
2023/11/19 01:50:19;;;;;;;;;;;;;;;;;;4200219;28;19925;-57
2023/11/19 01:52:21;;;;;;;;;;;;;;;;;;4200289;28;19932;-56
2023/11/19 01:54:22;;;;;;;;;;;;;;;;;;4200484;28;19931;-57
2023/11/19 01:56:24;;;;;;;;;;;;;;;;;;4200185;28;20361;-58
2023/11/19 01:58:26;;;;;;;;;;;;;;;;;;4198752;28;19989;-57
2023/11/19 02:00:27;;;;;;;;;;;;;;;;;;4200777;28;19932;-57
2023/11/19 02:02:29;;;;;;;;;;;;;;;;;;4183193;28;19925;-57
2023/11/19 02:04:31;;;;;;;;;;;;;;;;;;4183494;28;20384;-58
2023/11/19 02:06:33;;;;;;;;;;;;;;;;;;4183283;28;19971;-57
2023/11/19 02:08:34;;;;;;;;;;;;;;;;;;4189454;28;19924;-57
2023/11/19 02:10:36;;;;;;;;;;;;;;;;;;4200073;28;19920;-58
2023/11/19 02:12:37;;;;;;;;;;;;;;;;;;4200074;28;19924;-57
2023/11/19 02:14:39;;;;;;;;;;;;;;;;;;4199826;28;20296;-57
2023/11/19 02:16:40;;;;;;;;;;;;;;;;;;4200200;28;19928;-57
2023/11/19 02:18:42;;;;;;;;;;;;;;;;;;4199770;28;20034;-58
2023/11/19 02:20:44;;;;;;;;;;;;;;;;;;4199794;28;19920;-58
2023/11/19 02:22:46;;;;;;;;;;;;;;;;;;4199681;28;19925;-58
2023/11/19 02:24:48;;;;;;;;;;;;;;;;;;4199705;28;19967;-58
2023/11/19 02:26:49;;;;;;;;;;;;;;;;;;4199880;28;20295;-58
2023/11/19 02:28:52;;;;;;;;;;;;;;;;;;4199629;28;20418;-57
2023/11/19 02:30:53;;;;;;;;;;;;;;;;;;4209659;28;20011;-57
2023/11/19 02:32:57;;;;;;;;;;;;;;;;;;4216551;28;19924;-57
2023/11/19 02:34:59;;;;;;;;;;;;;;;;;;4216455;28;19926;-57
2023/11/19 02:37:04;;;;;;;;;;;;;;;;;;4216463;28;19927;-60
2023/11/19 02:39:10;;;;;;;;;;;;;;;;;;4208200;28;19986;-60
2023/11/19 02:41:11;;;;;;;;;;;;;;;;;;4199708;28;19920;-61
2023/11/19 02:43:13;;;;;;;;;;;;;;;;;;4199716;28;19924;-57
2023/11/19 02:45:14;;;;;;;;;;;;;;;;;;4199070;28;19931;-57
2023/11/19 02:47:17;;;;;;;;;;;;;;;;;;4199432;28;20047;-57
2023/11/19 02:49:18;;;;;;;;;;;;;;;;;;4199634;28;20011;-57
2023/11/19 02:51:19;;;;;;;;;;;;;;;;;;4199446;28;19942;-57
2023/11/19 02:53:22;;;;;;;;;;;;;;;;;;4199447;28;20439;-57
2023/11/19 02:55:23;;;;;;;;;;;;;;;;;;4199434;28;19920;-57
2023/11/19 02:57:25;;;;;;;;;;;;;;;;;;4199169;28;19920;-57
2023/11/19 02:59:27;;;;;;;;;;;;;;;;;;4199215;28;19955;-57
2023/11/19 03:01:33;;;;;;;;;;;;;;;;;;4199165;28;20288;-57
2023/11/19 03:03:40;;;;;;;;;;;;;;;;;;4198998;28;19928;-57
2023/11/19 03:05:44;;;;;;;;;;;;;;;;;;4199306;28;19974;-57
2023/11/19 03:07:46;;;;;;;;;;;;;;;;;;4199297;28;19931;-57
2023/11/19 03:09:49;;;;;;;;;;;;;;;;;;4181164;28;19967;-58
2023/11/19 03:11:50;;;;;;;;;;;;;;;;;;4199487;28;20272;-57
2023/11/19 03:13:52;;;;;;;;;;;;;;;;;;4199219;28;19924;-58
2023/11/19 03:15:53;;;;;;;;;;;;;;;;;;4198982;28;20346;-57
2023/11/19 03:17:55;;;;;;;;;;;;;;;;;;4198929;28;19975;-57
2023/11/19 03:19:57;;;;;;;;;;;;;;;;;;4198862;28;20380;-57
2023/11/19 03:21:59;;;;;;;;;;;;;;;;;;4199008;28;19920;-57
2023/11/19 03:24:01;;;;;;;;;;;;;;;;;;4198896;28;20015;-57
2023/11/19 03:26:05;;;;;;;;;;;;;;;;;;4198696;28;19951;-57
2023/11/19 03:28:07;;;;;;;;;;;;;;;;;;4198595;28;19931;-57
2023/11/19 03:30:12;;;;;;;;;;;;;;;;;;4198902;28;19920;-56
2023/11/19 03:32:14;;;;;;;;;;;;;;;;;;4198577;28;20368;-57
2023/11/19 03:34:15;;;;;;;;;;;;;;;;;;4198665;28;19924;-57
2023/11/19 03:36:17;;;;;;;;;;;;;;;;;;4198499;28;20396;-57
2023/11/19 03:38:18;;;;;;;;;;;;;;;;;;4198527;28;19924;-57
2023/11/19 03:40:20;;;;;;;;;;;;;;;;;;4180635;28;20388;-57
2023/11/19 03:42:22;;;;;;;;;;;;;;;;;;4198778;28;19978;-57
2023/11/19 03:44:26;;;;;;;;;;;;;;;;;;4198512;28;19927;-58
2023/11/19 03:46:29;;;;;;;;;;;;;;;;;;4198310;28;19982;-58
2023/11/19 03:48:31;;;;;;;;;;;;;;;;;;4198813;28;19920;-57
2023/11/19 03:50:33;;;;;;;;;;;;;;;;;;4198265;28;19924;-57
2023/11/19 03:52:35;;;;;;;;;;;;;;;;;;4198348;28;19920;-57
2023/11/19 03:54:45;;;;;;;;;;;;;;;;;;4198170;28;20015;-57
2023/11/19 03:56:47;;;;;;;;;;;;;;;;;;4197618;28;19925;-58
2023/11/19 03:58:48;;;;;;;;;;;;;;;;;;4198483;28;19927;-57
2023/11/19 04:00:50;;;;;;;;;;;;;;;;;;4198022;28;19924;-57
2023/11/19 04:02:51;;;;;;;;;;;;;;;;;;4196662;28;20396;-57
2023/11/19 04:04:52;;;;;;;;;;;;;;;;;;4198140;28;20382;-58
2023/11/19 04:06:54;;;;;;;;;;;;;;;;;;4198301;28;19924;-56
2023/11/19 04:08:56;;;;;;;;;;;;;;;;;;4198017;28;20030;-57
2023/11/19 04:10:57;;;;;;;;;;;;;;;;;;4198213;28;19924;-57
2023/11/19 04:12:58;;;;;;;;;;;;;;;;;;4198087;28;20299;-57
2023/11/19 04:15:00;;;;;;;;;;;;;;;;;;4197982;28;19928;-57
2023/11/19 04:17:02;;;;;;;;;;;;;;;;;;4198021;28;19927;-57
2023/11/19 04:19:04;;;;;;;;;;;;;;;;;;4198033;28;19927;-57
2023/11/19 04:21:06;;;;;;;;;;;;;;;;;;4198004;28;19921;-57
2023/11/19 04:23:07;;;;;;;;;;;;;;;;;;4187831;28;19958;-57
2023/11/19 04:25:09;;;;;;;;;;;;;;;;;;4214489;28;20260;-57
2023/11/19 04:27:11;;;;;;;;;;;;;;;;;;4214471;28;20019;-57
2023/11/19 04:29:12;;;;;;;;;;;;;;;;;;4198124;28;19921;-57
2023/11/19 04:31:15;;;;;;;;;;;;;;;;;;4197629;28;19924;-57
2023/11/19 04:33:17;;;;;;;;;;;;;;;;;;4197734;28;19986;-57
2023/11/19 04:35:19;;;;;;;;;;;;;;;;;;4197690;28;20340;-58
2023/11/19 04:37:21;;;;;;;;;;;;;;;;;;4197810;28;19920;-57
2023/11/19 04:39:22;;;;;;;;;;;;;;;;;;4197690;28;19939;-58
2023/11/19 04:41:23;;;;;;;;;;;;;;;;;;4197845;28;19920;-57
2023/11/19 04:43:25;;;;;;;;;;;;;;;;;;4197654;28;19920;-57
2023/11/19 04:45:27;;;;;;;;;;;;;;;;;;4197586;28;19981;-58
2023/11/19 04:47:28;;;;;;;;;;;;;;;;;;4197570;28;19970;-57
2023/11/19 04:49:30;;;;;;;;;;;;;;;;;;4197441;28;19920;-57
2023/11/19 04:51:32;;;;;;;;;;;;;;;;;;4197552;28;19927;-57
2023/11/19 04:53:33;;;;;;;;;;;;;;;;;;4197585;28;20422;-58
2023/11/19 04:55:35;;;;;;;;;;;;;;;;;;4197484;28;19963;-57
2023/11/19 04:57:36;;;;;;;;;;;;;;;;;;4197415;28;19920;-57
2023/11/19 04:59:38;;;;;;;;;;;;;;;;;;4197614;28;19963;-60
2023/11/19 05:01:39;;;;;;;;;;;;;;;;;;4197252;28;19963;-60
2023/11/19 05:03:41;;;;;;;;;;;;;;;;;;4197341;28;19927;-61
2023/11/19 05:05:42;;;;;;;;;;;;;;;;;;4197486;28;20331;-61
2023/11/19 05:07:44;;;;;;;;;;;;;;;;;;4197244;28;19920;-61
2023/11/19 05:09:45;;;;;;;;;;;;;;;;;;4213215;28;19920;-61
2023/11/19 05:11:48;;;;;;;;;;;;;;;;;;4214358;28;19920;-61
2023/11/19 05:13:52;;;;;;;;;;;;;;;;;;4214167;28;19955;-61
2023/11/19 05:15:54;;;;;;;;;;;;;;;;;;4214475;28;19924;-60
2023/11/19 05:17:56;;;;;;;;;;;;;;;;;;4214026;28;19946;-60
2023/11/19 05:19:57;;;;;;;;;;;;;;;;;;4201052;28;20372;-60
2023/11/19 05:21:59;;;;;;;;;;;;;;;;;;4197297;28;19920;-61
2023/11/19 05:24:00;;;;;;;;;;;;;;;;;;4197226;28;20426;-60
2023/11/19 05:26:02;;;;;;;;;;;;;;;;;;4197219;28;20324;-60
2023/11/19 05:28:05;;;;;;;;;;;;;;;;;;4197118;28;19920;-60
2023/11/19 05:30:07;;;;;;;;;;;;;;;;;;4197586;28;19932;-60
2023/11/19 05:32:08;;;;;;;;;;;;;;;;;;4197079;28;19924;-61
2023/11/19 05:34:10;;;;;;;;;;;;;;;;;;4197180;28;19920;-61
2023/11/19 05:36:12;;;;;;;;;;;;;;;;;;4179675;28;19927;-61
2023/11/19 05:38:14;;;;;;;;;;;;;;;;;;4197402;28;19924;-61
2023/11/19 05:40:17;;;;;;;;;;;;;;;;;;4197173;28;19928;-60
2023/11/19 05:42:18;;;;;;;;;;;;;;;;;;4197142;28;20441;-61
2023/11/19 05:44:20;;;;;;;;;;;;;;;;;;4197091;28;19999;-60
2023/11/19 05:46:22;;;;;;;;;;;;;;;;;;4197013;28;19924;-61
2023/11/19 05:48:24;;;;;;;;;;;;;;;;;;4196959;28;20034;-61
2023/11/19 05:50:25;;;;;;;;;;;;;;;;;;4197026;28;19964;-61
2023/11/19 05:52:28;;;;;;;;;;;;;;;;;;4197105;28;19920;-60
2023/11/19 05:54:30;;;;;;;;;;;;;;;;;;4196961;28;20376;-60
2023/11/19 05:56:32;;;;;;;;;;;;;;;;;;4197235;28;19928;-60
2023/11/19 05:58:34;;;;;;;;;;;;;;;;;;4197188;28;19924;-60
2023/11/19 06:00:36;;;;;;;;;;;;;;;;;;4180988;28;19963;-60
2023/11/19 06:02:38;;;;;;;;;;;;;;;;;;4195467;28;19947;-60
2023/11/19 06:04:39;;;;;;;;;;;;;;;;;;4195841;28;19920;-61
2023/11/19 06:06:41;;;;;;;;;;;;;;;;;;4213652;28;19927;-60
2023/11/19 06:08:43;;;;;;;;;;;;;;;;;;4206120;28;19921;-60
2023/11/19 06:10:46;;;;;;;;;;;;;;;;;;4190404;28;19974;-60
2023/11/19 06:12:48;;;;;;;;;;;;;;;;;;4178594;28;19928;-61
2023/11/19 06:14:49;;;;;;;;;;;;;;;;;;4196127;28;20295;-60
2023/11/19 06:16:51;;;;;;;;;;;;;;;;;;4196789;28;19967;-60
2023/11/19 06:18:53;;;;;;;;;;;;;;;;;;4196797;28;19924;-60
2023/11/19 06:20:55;;;;;;;;;;;;;;;;;;4199146;28;19924;-60
2023/11/19 06:22:56;;;;;;;;;;;;;;;;;;4199669;28;20326;-60
2023/11/19 06:24:58;;;;;;;;;;;;;;;;;;4189262;28;20453;-59
2023/11/19 06:27:00;;;;;;;;;;;;;;;;;;4199584;28;19920;-60
2023/11/19 06:29:01;;;;;;;;;;;;;;;;;;4199088;28;19921;-61
2023/11/19 06:31:03;;;;;;;;;;;;;;;;;;4198212;28;19928;-60
2023/11/19 06:33:04;;;;;;;;;;;;;;;;;;4194175;28;20649;-60
2023/11/19 06:35:06;;;;;;;;;;;;;;;;;;4199462;28;19920;-61
2023/11/19 06:37:09;;;;;;;;;;;;;;;;;;4197874;28;20011;-60
2023/11/19 06:39:10;;;;;;;;;;;;;;;;;;4185980;28;20394;-61
2023/11/19 06:41:12;;;;;;;;;;;;;;;;;;4199432;28;19920;-60
2023/11/19 06:43:14;;;;;;;;;;;;;;;;;;4195398;28;19924;-60
2023/11/19 06:45:15;;;;;;;;;;;;;;;;;;4194533;28;19929;-60
2023/11/19 06:47:17;;;;;;;;;;;;;;;;;;4187923;28;20292;-60
2023/11/19 06:49:18;;;;;;;;;;;;;;;;;;4189991;28;19946;-60
2023/11/19 06:51:22;;;;;;;;;;;;;;;;;;4196777;28;19970;-61
2023/11/19 06:53:23;;;;;;;;;;;;;;;;;;4199405;28;19966;-61
2023/11/19 06:55:25;;;;;;;;;;;;;;;;;;4192882;28;19920;-60
2023/11/19 06:57:28;;;;;;;;;;;;;;;;;;4195551;28;19921;-61
2023/11/19 06:59:29;;;;;;;;;;;;;;;;;;4198826;28;20337;-61
2023/11/19 07:01:31;;;;;;;;;;;;;;;;;;4193727;28;19921;-60
2023/11/19 07:03:32;;;;;;;;;;;;;;;;;;4197696;28;19951;-60
2023/11/19 07:05:35;;;;;;;;;;;;;;;;;;4198781;28;19924;-60
2023/11/19 07:07:37;;;;;;;;;;;;;;;;;;4192486;28;19927;-60
2023/11/19 07:09:38;;;;;;;;;;;;;;;;;;4196635;28;19931;-60
2023/11/19 07:11:40;;;;;;;;;;;;;;;;;;4193041;28;20166;-61
2023/11/19 07:13:41;;;;;;;;;;;;;;;;;;4194573;28;19920;-61
2023/11/19 07:15:43;;;;;;;;;;;;;;;;;;4178055;28;20027;-60
2023/11/19 07:17:45;;;;;;;;;;;;;;;;;;4199185;28;19920;-60
2023/11/19 07:19:46;;;;;;;;;;;;;;;;;;4198895;28;19924;-57
2023/11/19 07:21:48;;;;;;;;;;;;;;;;;;4198738;28;20299;-58
2023/11/19 07:23:50;;;;;;;;;;;;;;;;;;4198725;28;19927;-57
2023/11/19 07:25:53;;;;;;;;;;;;;;;;;;4198692;28;19938;-57
2023/11/19 07:27:55;;;;;;;;;;;;;;;;;;4198631;28;19973;-57
2023/11/19 07:29:57;;;;;;;;;;;;;;;;;;4198836;28;19931;-61
2023/11/19 07:32:00;;;;;;;;;;;;;;;;;;4197685;28;19928;-61
2023/11/19 07:34:02;;;;;;;;;;;;;;;;;;4198837;28;19924;-60
2023/11/19 07:36:03;;;;;;;;;;;;;;;;;;4192186;28;19956;-61
2023/11/19 07:38:05;;;;;;;;;;;;;;;;;;4198334;28;19920;-61
2023/11/19 07:40:07;;;;;;;;;;;;;;;;;;4198622;28;19935;-57
2023/11/19 07:42:09;;;;;;;;;;;;;;;;;;4198060;28;20119;-58
2023/11/19 07:44:11;;;;;;;;;;;;;;;;;;4189940;28;19962;-57
2023/11/19 07:46:12;;;;;;;;;;;;;;;;;;4187621;28;19920;-58
2023/11/19 07:48:15;;;;;;;;;;;;;;;;;;4194123;28;19932;-59
2023/11/19 07:50:20;;;;;;;;;;;;;;;;;;4197684;28;20007;-57
2023/11/19 07:52:21;;;;;;;;;;;;;;;;;;4197051;28;20019;-58
2023/11/19 07:54:24;;;;;;;;;;;;;;;;;;4176400;28;20409;-60
2023/11/19 07:56:25;;;;;;;;;;;;;;;;;;4182522;28;19932;-57
2023/11/19 07:58:27;;;;;;;;;;;;;;;;;;4181930;28;19920;-58
2023/11/19 08:00:28;;;;;;;;;;;;;;;;;;4186452;28;19958;-58
2023/11/19 08:02:30;;;;;;;;;;;;;;;;;;4192198;28;19921;-59
2023/11/19 08:04:31;;;;;;;;;;;;;;;;;;4178920;28;19987;-59
2023/11/19 08:06:33;;;;;;;;;;;;;;;;;;4197930;28;19925;-58
2023/11/19 08:08:34;;;;;;;;;;;;;;;;;;4191741;28;19963;-59
2023/11/19 08:10:36;;;;;;;;;;;;;;;;;;4195842;28;19934;-58
2023/11/19 08:12:38;;;;;;;;;;;;;;;;;;4193320;28;19924;-59
2023/11/19 08:14:39;;;;;;;;;;;;;;;;;;4195318;28;19925;-59
2023/11/19 08:16:41;;;;;;;;;;;;;;;;;;4195436;28;19927;-59
2023/11/19 08:18:43;;;;;;;;;;;;;;;;;;4193453;28;19946;-60
2023/11/19 08:20:44;;;;;;;;;;;;;;;;;;4194123;28;19959;-59
2023/11/19 08:22:46;;;;;;;;;;;;;;;;;;4196554;28;19974;-59
2023/11/19 08:24:48;;;;;;;;;;;;;;;;;;4195583;28;19927;-58
2023/11/19 08:26:49;;;;;;;;;;;;;;;;;;4195244;28;19928;-59
2023/11/19 08:29:03;;;;;;;;;;;;;;;;;;4193744;28;19920;-59
2023/11/19 08:31:05;;;;;;;;;;;;;;;;;;4192094;28;20319;-59
2023/11/19 08:33:06;;;;;;;;;;;;;;;;;;4197365;28;19921;-59
2023/11/19 08:35:08;;;;;;;;;;;;;;;;;;4197616;28;19920;-59
2023/11/19 08:37:10;;;;;;;;;;;;;;;;;;4197650;28;19924;-59
2023/11/19 08:39:13;;;;;;;;;;;;;;;;;;4179954;28;19920;-59
2023/11/19 08:41:17;;;;;;;;;;;;;;;;;;4197686;28;19924;-59
2023/11/19 08:43:19;;;;;;;;;;;;;;;;;;4179800;28;19931;-58
2023/11/19 08:45:21;;;;;;;;;;;;;;;;;;4197758;28;20421;-59
2023/11/19 08:47:22;;;;;;;;;;;;;;;;;;4197579;28;19928;-58
2023/11/19 08:49:24;;;;;;;;;;;;;;;;;;4196509;28;19921;-62
2023/11/19 08:51:26;;;;;;;;;;;;;;;;;;4197639;28;19921;-59
2023/11/19 08:53:27;;;;;;;;;;;;;;;;;;4191346;28;19920;-60
2023/11/19 08:55:29;;;;;;;;;;;;;;;;;;4195888;28;19971;-60
2023/11/19 08:57:30;;;;;;;;;;;;;;;;;;4196771;28;19920;-60
2023/11/19 08:59:32;;;;;;;;;;;;;;;;;;4197422;28;19932;-60
2023/11/19 09:01:33;;;;;;;;;;;;;;;;;;4196240;28;19951;-60
2023/11/19 09:03:36;;;;;;;;;;;;;;;;;;4190889;28;19926;-60
2023/11/19 09:05:38;;;;;;;;;;;;;;;;;;4191160;28;19921;-60
2023/11/19 09:07:40;;;;;;;;;;;;;;;;;;4189291;28;19931;-60
2023/11/19 09:09:41;;;;;;;;;;;;;;;;;;4189246;28;19943;-61
2023/11/19 09:11:43;;;;;;;;;;;;;;;;;;4197341;28;19920;-60
2023/11/19 09:13:45;;;;;;;;;;;;;;;;;;4197215;28;20007;-61
2023/11/19 09:15:46;;;;;;;;;;;;;;;;;;4190800;28;19921;-60
2023/11/19 09:17:48;;;;;;;;;;;;;;;;;;4195651;28;19966;-61
2023/11/19 09:19:50;;;;;;;;;;;;;;;;;;4197201;28;19924;-61
2023/11/19 09:21:51;;;;;;;;;;;;;;;;;;4194773;28;19924;-60
2023/11/19 09:23:53;;;;;;;;;;;;;;;;;;4191064;28;19924;-60
2023/11/19 09:25:55;;;;;;;;;;;;;;;;;;4183657;28;20015;-61
2023/11/19 09:27:56;;;;;;;;;;;;;;;;;;4190582;28;19959;-61
2023/11/19 09:29:58;;;;;;;;;;;;;;;;;;4197215;28;19920;-60
2023/11/19 09:32:00;;;;;;;;;;;;;;;;;;4195724;28;19924;-61
2023/11/19 09:34:03;;;;;;;;;;;;;;;;;;4197139;28;20426;-61
2023/11/19 09:36:04;;;;;;;;;;;;;;;;;;4197133;28;19931;-61
2023/11/19 09:38:05;;;;;;;;;;;;;;;;;;4197304;28;19959;-61
2023/11/19 09:40:09;;;;;;;;;;;;;;;;;;4190694;28;20419;-61
2023/11/19 09:42:10;;;;;;;;;;;;;;;;;;4182652;28;19921;-61
2023/11/19 09:44:12;;;;;;;;;;;;;;;;;;4197155;28;19924;-61
2023/11/19 09:46:14;;;;;;;;;;;;;;;;;;4196874;28;19927;-61
2023/11/19 09:48:15;;;;;;;;;;;;;;;;;;4191399;28;19978;-61
2023/11/19 09:50:17;;;;;;;;;;;;;;;;;;4192608;28;19920;-61
2023/11/19 09:52:19;;;;;;;;;;;;;;;;;;4192916;28;19970;-60
2023/11/19 09:54:20;;;;;;;;;;;;;;;;;;4191840;28;20367;-61
2023/11/19 09:56:22;;;;;;;;;;;;;;;;;;4195609;28;19960;-60
2023/11/19 09:58:23;;;;;;;;;;;;;;;;;;4197678;28;19924;-61
2023/11/19 10:00:25;;;;;;;;;;;;;;;;;;4200652;28;19920;-64
2023/11/19 10:02:26;;;;;;;;;;;;;;;;;;4216612;28;20006;-64
2023/11/19 10:04:28;;;;;;;;;;;;;;;;;;4202255;28;19935;-64
2023/11/19 10:06:30;;;;;;;;;;;;;;;;;;4196764;28;19921;-64
2023/11/19 10:08:31;;;;;;;;;;;;;;;;;;4199573;28;19928;-64
2023/11/19 10:10:33;;;;;;;;;;;;;;;;;;4196554;28;19928;-63
2023/11/19 10:12:34;;;;;;;;;;;;;;;;;;4189492;28;19924;-64
2023/11/19 10:14:37;;;;;;;;;;;;;;;;;;4188033;28;20380;-64
2023/11/19 10:16:39;;;;;;;;;;;;;;;;;;4193350;28;19920;-63
2023/11/19 10:18:41;;;;;;;;;;;;;;;;;;4183270;28;19931;-63
2023/11/19 10:20:43;;;;;;;;;;;;;;;;;;4183102;28;19920;-64
2023/11/19 10:22:45;;;;;;;;;;;;;;;;;;4184383;28;19959;-64
2023/11/19 10:24:47;;;;;;;;;;;;;;;;;;4189376;28;19921;-64
2023/11/19 10:26:52;;;;;;;;;;;;;;;;;;4193462;28;19932;-64
2023/11/19 10:28:53;;;;;;;;;;;;;;;;;;4192282;28;20012;-63
2023/11/19 10:30:56;;;;;;;;;;;;;;;;;;4172035;28;19920;-63
2023/11/19 10:32:57;;;;;;;;;;;;;;;;;;4190895;28;19925;-63
2023/11/19 10:34:59;;;;;;;;;;;;;;;;;;4181454;28;19928;-63
2023/11/19 10:37:00;;;;;;;;;;;;;;;;;;4190836;28;19956;-63
2023/11/19 10:39:02;;;;;;;;;;;;;;;;;;4190801;28;19927;-64
2023/11/19 10:41:05;;;;;;;;;;;;;;;;;;4186610;28;19920;-63
2023/11/19 10:43:07;;;;;;;;;;;;;;;;;;4186952;28;19925;-63
2023/11/19 10:45:09;;;;;;;;;;;;;;;;;;4187911;28;19928;-63
2023/11/19 10:47:10;;;;;;;;;;;;;;;;;;4193559;28;19970;-63
2023/11/19 10:49:12;;;;;;;;;;;;;;;;;;4194616;28;19966;-63
2023/11/19 10:51:16;;;;;;;;;;;;;;;;;;4191605;28;19924;-63
2023/11/19 10:53:17;;;;;;;;;;;;;;;;;;4188672;28;19947;-63
2023/11/19 10:55:19;;;;;;;;;;;;;;;;;;4195619;28;19920;-63
2023/11/19 10:57:21;;;;;;;;;;;;;;;;;;4199113;28;20018;-63
2023/11/19 10:59:23;;;;;;;;;;;;;;;;;;4199399;28;19924;-63
2023/11/19 11:01:26;;;;;;;;;;;;;;;;;;4194225;28;19920;-63
2023/11/19 11:03:27;;;;;;;;;;;;;;;;;;4195927;28;19920;-63
2023/11/19 11:05:29;;;;;;;;;;;;;;;;;;4196295;28;20357;-63
2023/11/19 11:07:30;;;;;;;;;;;;;;;;;;4197175;28;20398;-64
2023/11/19 11:09:39;;;;;;;;;;;;;;;;;;4197029;28;20368;-63
2023/11/19 11:11:43;;;;;;;;;;;;;;;;;;4187020;28;19972;-63
2023/11/19 11:13:45;;;;;;;;;;;;;;;;;;4198248;28;19986;-63
2023/11/19 11:15:46;;;;;;;;;;;;;;;;;;4192327;28;20300;-63
2023/11/19 11:17:48;;;;;;;;;;;;;;;;;;4192265;28;19926;-63
2023/11/19 11:19:50;;;;;;;;;;;;;;;;;;4194210;28;20296;-63
2023/11/19 11:21:51;;;;;;;;;;;;;;;;;;4192747;28;19924;-64
2023/11/19 11:23:54;;;;;;;;;;;;;;;;;;4197529;28;19924;-63
2023/11/19 11:25:57;;;;;;;;;;;;;;;;;;4198196;28;19983;-63
2023/11/19 11:27:59;;;;;;;;;;;;;;;;;;4198736;28;19931;-63
2023/11/19 11:30:00;;;;;;;;;;;;;;;;;;4198633;28;19935;-63
2023/11/19 11:32:02;;;;;;;;;;;;;;;;;;4197637;28;20311;-63
2023/11/19 11:34:04;;;;;;;;;;;;;;;;;;4177282;28;19924;-63
2023/11/19 11:36:05;;;;;;;;;;;;;;;;;;4196911;28;19928;-63
2023/11/19 11:38:07;;;;;;;;;;;;;;;;;;4194224;28;20296;-63
2023/11/19 11:40:10;;;;;;;;;;;;;;;;;;4194822;28;19964;-63
2023/11/19 11:42:12;;;;;;;;;;;;;;;;;;4190801;28;20015;-63
2023/11/19 11:44:13;;;;;;;;;;;;;;;;;;4198596;28;19927;-63
2023/11/19 11:46:15;;;;;;;;;;;;;;;;;;4198596;28;20303;-63
2023/11/19 11:48:16;;;;;;;;;;;;;;;;;;4198460;28;19920;-63
2023/11/19 11:50:21;;;;;;;;;;;;;;;;;;4197358;28;20384;-64
2023/11/19 11:52:24;;;;;;;;;;;;;;;;;;4186474;28;19932;-64
2023/11/19 11:54:25;;;;;;;;;;;;;;;;;;4187663;28;19927;-63
2023/11/19 11:56:26;;;;;;;;;;;;;;;;;;4197597;28;19920;-64
2023/11/19 11:58:30;;;;;;;;;;;;;;;;;;4193009;28;19943;-64
2023/11/19 12:00:32;;;;;;;;;;;;;;;;;;4194461;28;19935;-65
2023/11/19 12:02:33;;;;;;;;;;;;;;;;;;4198804;28;19920;-64
2023/11/19 12:04:35;;;;;;;;;;;;;;;;;;4195155;28;19928;-64
2023/11/19 12:06:36;;;;;;;;;;;;;;;;;;4190775;28;20304;-65
2023/11/19 12:08:38;;;;;;;;;;;;;;;;;;4191444;28;20067;-65
2023/11/19 12:10:42;;;;;;;;;;;;;;;;;;4195986;28;19971;-65
2023/11/19 12:12:44;;;;;;;;;;;;;;;;;;4195227;28;19920;-66
2023/11/19 12:14:45;;;;;;;;;;;;;;;;;;4194203;28;19974;-65
2023/11/19 12:16:47;;;;;;;;;;;;;;;;;;4194450;28;19928;-65
2023/11/19 12:18:48;;;;;;;;;;;;;;;;;;4196964;28;19970;-65
2023/11/19 12:20:50;;;;;;;;;;;;;;;;;;4197346;28;19928;-61
2023/11/19 12:22:51;;;;;;;;;;;;;;;;;;4196311;28;19966;-61
2023/11/19 12:24:53;;;;;;;;;;;;;;;;;;4197728;28;19928;-60
2023/11/19 12:26:56;;;;;;;;;;;;;;;;;;4178884;28;19991;-61
2023/11/19 12:28:58;;;;;;;;;;;;;;;;;;4193854;28;19973;-61
2023/11/19 12:31:00;;;;;;;;;;;;;;;;;;4196367;28;19928;-61
2023/11/19 12:33:01;;;;;;;;;;;;;;;;;;4194145;28;20014;-61
2023/11/19 12:35:03;;;;;;;;;;;;;;;;;;4194656;28;19924;-62
2023/11/19 12:37:04;;;;;;;;;;;;;;;;;;4196184;28;19956;-61
2023/11/19 12:39:06;;;;;;;;;;;;;;;;;;4196685;28;19920;-61
2023/11/19 12:41:08;;;;;;;;;;;;;;;;;;4193215;28;19925;-66
2023/11/19 12:43:09;;;;;;;;;;;;;;;;;;4195906;28;19920;-65
2023/11/19 12:45:11;;;;;;;;;;;;;;;;;;4187721;28;19963;-65
2023/11/19 12:47:13;;;;;;;;;;;;;;;;;;4181119;28;19955;-65
2023/11/19 12:49:14;;;;;;;;;;;;;;;;;;4194661;28;20394;-65
2023/11/19 12:51:16;;;;;;;;;;;;;;;;;;4193907;28;20437;-65
2023/11/19 12:53:18;;;;;;;;;;;;;;;;;;4195295;28;20269;-65
2023/11/19 12:55:19;;;;;;;;;;;;;;;;;;4179464;28;19948;-65
2023/11/19 12:57:29;;;;;;;;;;;;;;;;;;4169826;28;19921;-65
2023/11/19 12:59:31;;;;;;;;;;;;;;;;;;4179743;28;19928;-65
2023/11/19 13:01:35;;;;;;;;;;;;;;;;;;4176494;28;20384;-64
2023/11/19 13:03:38;;;;;;;;;;;;;;;;;;4173817;28;20364;-65
2023/11/19 13:05:40;;;;;;;;;;;;;;;;;;4177301;28;20368;-65
2023/11/19 13:07:41;;;;;;;;;;;;;;;;;;4178698;28;20432;-65
2023/11/19 13:09:43;;;;;;;;;;;;;;;;;;4178539;28;19925;-65
2023/11/19 13:11:46;;;;;;;;;;;;;;;;;;4179239;28;19990;-65
2023/11/19 13:13:47;;;;;;;;;;;;;;;;;;4167144;28;19936;-65
2023/11/19 13:15:49;;;;;;;;;;;;;;;;;;4156806;28;20006;-65
2023/11/19 13:17:51;;;;;;;;;;;;;;;;;;4173876;28;19970;-65
2023/11/19 13:19:53;;;;;;;;;;;;;;;;;;4165022;28;19929;-65
2023/11/19 13:21:54;;;;;;;;;;;;;;;;;;4177872;28;19967;-65
2023/11/19 13:23:55;;;;;;;;;;;;;;;;;;4178313;28;19951;-65
2023/11/19 13:25:57;;;;;;;;;;;;;;;;;;4175829;28;19921;-65
2023/11/19 13:27:59;;;;;;;;;;;;;;;;;;4176805;28;19928;-65
2023/11/19 13:30:00;;;;;;;;;;;;;;;;;;4161690;28;19928;-65
2023/11/19 13:32:04;;;;;;;;;;;;;;;;;;4179163;28;20402;-65
2023/11/19 13:34:07;;;;;;;;;;;;;;;;;;4181795;28;19935;-65
2023/11/19 13:36:09;;;;;;;;;;;;;;;;;;4178780;28;19932;-65
2023/11/19 13:38:11;;;;;;;;;;;;;;;;;;4176628;28;19967;-65
2023/11/19 13:40:14;;;;;;;;;;;;;;;;;;4180958;28;19979;-66
2023/11/19 13:42:15;;;;;;;;;;;;;;;;;;4182381;28;19924;-65
2023/11/19 13:44:18;;;;;;;;;;;;;;;;;;4182458;28;20347;-66
2023/11/19 13:46:20;;;;;;;;;;;;;;;;;;4168957;28;19928;-66
2023/11/19 13:48:21;;;;;;;;;;;;;;;;;;4160514;28;19925;-64
2023/11/19 13:50:23;;;;;;;;;;;;;;;;;;4179873;28;20304;-66
2023/11/19 13:52:24;;;;;;;;;;;;;;;;;;4178245;28;20050;-65